sensor_id;sensor_type;location;lat;lon;timestamp;P1;durP1;ratioP1;P2;durP2;ratioP2
70165;SDS011;57541;47.408;18.822;2023-02-13T00:00:25;42.22;;;20.30;;
70165;SDS011;57541;47.408;18.822;2023-02-13T00:00:57;39.30;;;19.63;;
70165;SDS011;57541;47.408;18.822;2023-02-13T00:01:30;40.85;;;20.42;;
70165;SDS011;57541;47.408;18.822;2023-02-13T00:02:01;42.20;;;19.90;;
70165;SDS011;57541;47.408;18.822;2023-02-13T00:02:33;38.45;;;18.70;;
70165;SDS011;57541;47.408;18.822;2023-02-13T00:03:05;37.47;;;18.58;;
70165;SDS011;57541;47.408;18.822;2023-02-13T00:03:37;34.00;;;17.88;;
70165;SDS011;57541;47.408;18.822;2023-02-13T00:04:09;34.03;;;17.38;;
70165;SDS011;57541;47.408;18.822;2023-02-13T00:04:41;37.85;;;18.58;;
70165;SDS011;57541;47.408;18.822;2023-02-13T00:05:13;37.03;;;18.67;;
70165;SDS011;57541;47.408;18.822;2023-02-13T00:05:45;39.47;;;18.40;;
70165;SDS011;57541;47.408;18.822;2023-02-13T00:06:17;37.85;;;18.52;;
70165;SDS011;57541;47.408;18.822;2023-02-13T00:06:48;41.80;;;20.40;;
70165;SDS011;57541;47.408;18.822;2023-02-13T00:07:20;36.78;;;18.40;;
70165;SDS011;57541;47.408;18.822;2023-02-13T00:07:52;36.05;;;18.42;;
70165;SDS011;57541;47.408;18.822;2023-02-13T00:08:23;36.92;;;18.35;;
70165;SDS011;57541;47.408;18.822;2023-02-13T00:08:55;39.03;;;19.17;;
70165;SDS011;57541;47.408;18.822;2023-02-13T00:09:27;37.60;;;19.48;;
70165;SDS011;57541;47.408;18.822;2023-02-13T00:09:58;38.88;;;19.17;;
70165;SDS011;57541;47.408;18.822;2023-02-13T00:10:30;39.88;;;20.10;;
70165;SDS011;57541;47.408;18.822;2023-02-13T00:11:01;36.47;;;19.48;;
70165;SDS011;57541;47.408;18.822;2023-02-13T00:11:33;38.20;;;18.95;;
70165;SDS011;57541;47.408;18.822;2023-02-13T00:12:05;37.58;;;19.67;;
70165;SDS011;57541;47.408;18.822;2023-02-13T00:12:38;38.75;;;18.67;;
70165;SDS011;57541;47.408;18.822;2023-02-13T00:13:10;37.15;;;18.15;;
70165;SDS011;57541;47.408;18.822;2023-02-13T00:13:41;39.15;;;19.02;;
70165;SDS011;57541;47.408;18.822;2023-02-13T00:14:13;40.95;;;19.08;;
70165;SDS011;57541;47.408;18.822;2023-02-13T00:14:45;39.78;;;18.08;;
70165;SDS011;57541;47.408;18.822;2023-02-13T00:15:16;37.17;;;18.30;;
70165;SDS011;57541;47.408;18.822;2023-02-13T00:15:58;36.78;;;18.38;;
70165;SDS011;57541;47.408;18.822;2023-02-13T00:16:31;39.13;;;18.52;;
70165;SDS011;57541;47.408;18.822;2023-02-13T00:17:02;38.80;;;19.05;;
70165;SDS011;57541;47.408;18.822;2023-02-13T00:17:35;36.05;;;17.92;;
70165;SDS011;57541;47.408;18.822;2023-02-13T00:18:07;37.83;;;18.17;;
70165;SDS011;57541;47.408;18.822;2023-02-13T00:18:38;35.00;;;18.30;;
70165;SDS011;57541;47.408;18.822;2023-02-13T00:19:10;34.70;;;18.08;;
70165;SDS011;57541;47.408;18.822;2023-02-13T00:19:42;38.08;;;19.73;;
70165;SDS011;57541;47.408;18.822;2023-02-13T00:20:14;35.33;;;17.05;;
70165;SDS011;57541;47.408;18.822;2023-02-13T00:20:55;36.45;;;16.67;;
70165;SDS011;57541;47.408;18.822;2023-02-13T00:21:28;36.55;;;18.70;;
70165;SDS011;57541;47.408;18.822;2023-02-13T00:22:00;35.22;;;19.13;;
70165;SDS011;57541;47.408;18.822;2023-02-13T00:22:35;35.72;;;19.30;;
70165;SDS011;57541;47.408;18.822;2023-02-13T00:23:07;34.60;;;18.67;;
70165;SDS011;57541;47.408;18.822;2023-02-13T00:23:39;37.70;;;18.63;;
70165;SDS011;57541;47.408;18.822;2023-02-13T00:24:10;36.03;;;18.35;;
70165;SDS011;57541;47.408;18.822;2023-02-13T00:24:42;37.40;;;18.60;;
70165;SDS011;57541;47.408;18.822;2023-02-13T00:25:14;39.97;;;19.00;;
70165;SDS011;57541;47.408;18.822;2023-02-13T00:25:45;35.28;;;16.58;;
70165;SDS011;57541;47.408;18.822;2023-02-13T00:26:17;34.42;;;18.08;;
70165;SDS011;57541;47.408;18.822;2023-02-13T00:26:49;37.42;;;18.45;;
70165;SDS011;57541;47.408;18.822;2023-02-13T00:27:21;40.55;;;19.52;;
70165;SDS011;57541;47.408;18.822;2023-02-13T00:27:53;35.83;;;18.45;;
70165;SDS011;57541;47.408;18.822;2023-02-13T00:28:24;36.70;;;19.02;;
70165;SDS011;57541;47.408;18.822;2023-02-13T00:28:57;39.47;;;19.63;;
70165;SDS011;57541;47.408;18.822;2023-02-13T00:29:29;37.28;;;19.42;;
70165;SDS011;57541;47.408;18.822;2023-02-13T00:30:00;34.25;;;18.08;;
70165;SDS011;57541;47.408;18.822;2023-02-13T00:30:34;36.33;;;18.58;;
70165;SDS011;57541;47.408;18.822;2023-02-13T00:31:07;37.35;;;17.67;;
70165;SDS011;57541;47.408;18.822;2023-02-13T00:31:40;35.67;;;18.20;;
70165;SDS011;57541;47.408;18.822;2023-02-13T00:32:13;35.83;;;18.55;;
70165;SDS011;57541;47.408;18.822;2023-02-13T00:32:45;35.83;;;18.13;;
70165;SDS011;57541;47.408;18.822;2023-02-13T00:33:16;36.53;;;18.40;;
70165;SDS011;57541;47.408;18.822;2023-02-13T00:33:48;31.77;;;16.38;;
70165;SDS011;57541;47.408;18.822;2023-02-13T00:34:20;30.17;;;16.17;;
70165;SDS011;57541;47.408;18.822;2023-02-13T00:34:52;35.45;;;17.73;;
70165;SDS011;57541;47.408;18.822;2023-02-13T00:35:23;34.30;;;16.88;;
70165;SDS011;57541;47.408;18.822;2023-02-13T00:36:02;32.95;;;16.85;;
70165;SDS011;57541;47.408;18.822;2023-02-13T00:36:37;38.17;;;18.15;;
70165;SDS011;57541;47.408;18.822;2023-02-13T00:37:09;34.00;;;17.10;;
70165;SDS011;57541;47.408;18.822;2023-02-13T00:37:41;34.78;;;17.45;;
70165;SDS011;57541;47.408;18.822;2023-02-13T00:38:13;34.25;;;16.48;;
70165;SDS011;57541;47.408;18.822;2023-02-13T00:38:45;33.72;;;17.08;;
70165;SDS011;57541;47.408;18.822;2023-02-13T00:39:17;31.13;;;16.48;;
70165;SDS011;57541;47.408;18.822;2023-02-13T00:39:49;37.60;;;17.73;;
70165;SDS011;57541;47.408;18.822;2023-02-13T00:40:20;34.55;;;17.50;;
70165;SDS011;57541;47.408;18.822;2023-02-13T00:40:52;30.92;;;16.38;;
70165;SDS011;57541;47.408;18.822;2023-02-13T00:41:24;35.25;;;16.95;;
70165;SDS011;57541;47.408;18.822;2023-02-13T00:41:56;35.90;;;19.10;;
70165;SDS011;57541;47.408;18.822;2023-02-13T00:42:27;36.40;;;18.73;;
70165;SDS011;57541;47.408;18.822;2023-02-13T00:42:59;30.58;;;16.70;;
70165;SDS011;57541;47.408;18.822;2023-02-13T00:43:31;34.55;;;17.63;;
70165;SDS011;57541;47.408;18.822;2023-02-13T00:44:03;31.58;;;15.75;;
70165;SDS011;57541;47.408;18.822;2023-02-13T00:44:35;33.00;;;16.55;;
70165;SDS011;57541;47.408;18.822;2023-02-13T00:45:06;32.85;;;16.08;;
70165;SDS011;57541;47.408;18.822;2023-02-13T00:45:38;31.60;;;16.33;;
70165;SDS011;57541;47.408;18.822;2023-02-13T00:46:10;33.03;;;16.35;;
70165;SDS011;57541;47.408;18.822;2023-02-13T00:46:42;33.05;;;17.52;;
70165;SDS011;57541;47.408;18.822;2023-02-13T00:47:14;38.47;;;17.67;;
70165;SDS011;57541;47.408;18.822;2023-02-13T00:47:45;40.33;;;20.00;;
70165;SDS011;57541;47.408;18.822;2023-02-13T00:48:17;38.67;;;19.90;;
70165;SDS011;57541;47.408;18.822;2023-02-13T00:48:49;38.85;;;19.95;;
70165;SDS011;57541;47.408;18.822;2023-02-13T00:49:21;41.75;;;21.00;;
70165;SDS011;57541;47.408;18.822;2023-02-13T00:49:52;35.15;;;17.58;;
70165;SDS011;57541;47.408;18.822;2023-02-13T00:50:24;35.00;;;17.50;;
70165;SDS011;57541;47.408;18.822;2023-02-13T00:50:56;37.53;;;19.17;;
70165;SDS011;57541;47.408;18.822;2023-02-13T00:51:28;32.00;;;17.33;;
70165;SDS011;57541;47.408;18.822;2023-02-13T00:52:00;36.58;;;18.83;;
70165;SDS011;57541;47.408;18.822;2023-02-13T00:52:31;36.92;;;19.25;;
70165;SDS011;57541;47.408;18.822;2023-02-13T00:53:03;37.80;;;19.92;;
70165;SDS011;57541;47.408;18.822;2023-02-13T00:53:35;37.65;;;20.45;;
70165;SDS011;57541;47.408;18.822;2023-02-13T00:54:07;34.90;;;17.77;;
70165;SDS011;57541;47.408;18.822;2023-02-13T00:54:39;34.15;;;17.75;;
70165;SDS011;57541;47.408;18.822;2023-02-13T00:55:10;34.00;;;17.88;;
70165;SDS011;57541;47.408;18.822;2023-02-13T00:55:42;34.22;;;18.98;;
70165;SDS011;57541;47.408;18.822;2023-02-13T00:56:14;34.15;;;17.85;;
70165;SDS011;57541;47.408;18.822;2023-02-13T00:56:46;35.35;;;17.83;;
70165;SDS011;57541;47.408;18.822;2023-02-13T00:57:18;36.22;;;17.70;;
70165;SDS011;57541;47.408;18.822;2023-02-13T00:57:49;33.78;;;18.27;;
70165;SDS011;57541;47.408;18.822;2023-02-13T00:58:21;36.63;;;18.60;;
70165;SDS011;57541;47.408;18.822;2023-02-13T00:58:53;31.30;;;15.75;;
70165;SDS011;57541;47.408;18.822;2023-02-13T00:59:25;31.25;;;16.15;;
70165;SDS011;57541;47.408;18.822;2023-02-13T00:59:57;35.60;;;16.75;;
70165;SDS011;57541;47.408;18.822;2023-02-13T01:00:29;35.85;;;17.27;;
70165;SDS011;57541;47.408;18.822;2023-02-13T01:01:01;32.72;;;16.23;;
70165;SDS011;57541;47.408;18.822;2023-02-13T01:01:32;37.53;;;18.48;;
70165;SDS011;57541;47.408;18.822;2023-02-13T01:02:04;38.65;;;19.27;;
70165;SDS011;57541;47.408;18.822;2023-02-13T01:02:36;35.28;;;18.02;;
70165;SDS011;57541;47.408;18.822;2023-02-13T01:03:07;33.83;;;17.45;;
70165;SDS011;57541;47.408;18.822;2023-02-13T01:03:40;35.08;;;17.98;;
70165;SDS011;57541;47.408;18.822;2023-02-13T01:04:11;33.53;;;16.73;;
70165;SDS011;57541;47.408;18.822;2023-02-13T01:04:43;35.55;;;18.25;;
70165;SDS011;57541;47.408;18.822;2023-02-13T01:05:15;32.17;;;16.42;;
70165;SDS011;57541;47.408;18.822;2023-02-13T01:05:47;36.10;;;17.38;;
70165;SDS011;57541;47.408;18.822;2023-02-13T01:06:19;37.08;;;17.63;;
70165;SDS011;57541;47.408;18.822;2023-02-13T01:06:51;32.60;;;16.85;;
70165;SDS011;57541;47.408;18.822;2023-02-13T01:07:22;29.05;;;15.40;;
70165;SDS011;57541;47.408;18.822;2023-02-13T01:07:55;36.95;;;18.00;;
70165;SDS011;57541;47.408;18.822;2023-02-13T01:08:27;32.92;;;17.13;;
70165;SDS011;57541;47.408;18.822;2023-02-13T01:08:58;36.45;;;17.75;;
70165;SDS011;57541;47.408;18.822;2023-02-13T01:09:30;33.80;;;16.45;;
70165;SDS011;57541;47.408;18.822;2023-02-13T01:10:02;35.08;;;18.13;;
70165;SDS011;57541;47.408;18.822;2023-02-13T01:10:35;33.65;;;16.88;;
70165;SDS011;57541;47.408;18.822;2023-02-13T01:11:08;39.20;;;18.00;;
70165;SDS011;57541;47.408;18.822;2023-02-13T01:11:40;35.92;;;17.55;;
70165;SDS011;57541;47.408;18.822;2023-02-13T01:12:11;35.15;;;17.35;;
70165;SDS011;57541;47.408;18.822;2023-02-13T01:12:43;33.47;;;18.00;;
70165;SDS011;57541;47.408;18.822;2023-02-13T01:13:15;37.83;;;18.10;;
70165;SDS011;57541;47.408;18.822;2023-02-13T01:13:51;34.67;;;17.10;;
70165;SDS011;57541;47.408;18.822;2023-02-13T01:14:22;39.95;;;18.92;;
70165;SDS011;57541;47.408;18.822;2023-02-13T01:14:55;39.60;;;19.42;;
70165;SDS011;57541;47.408;18.822;2023-02-13T01:15:27;38.72;;;18.50;;
70165;SDS011;57541;47.408;18.822;2023-02-13T01:15:58;37.72;;;18.25;;
70165;SDS011;57541;47.408;18.822;2023-02-13T01:16:30;37.85;;;18.42;;
70165;SDS011;57541;47.408;18.822;2023-02-13T01:17:02;36.90;;;18.15;;
70165;SDS011;57541;47.408;18.822;2023-02-13T01:17:34;38.08;;;19.00;;
70165;SDS011;57541;47.408;18.822;2023-02-13T01:18:05;38.03;;;18.67;;
70165;SDS011;57541;47.408;18.822;2023-02-13T01:18:37;40.45;;;19.38;;
70165;SDS011;57541;47.408;18.822;2023-02-13T01:19:09;37.47;;;18.63;;
70165;SDS011;57541;47.408;18.822;2023-02-13T01:19:41;38.58;;;19.27;;
70165;SDS011;57541;47.408;18.822;2023-02-13T01:20:13;42.60;;;20.05;;
70165;SDS011;57541;47.408;18.822;2023-02-13T01:20:45;36.25;;;18.13;;
70165;SDS011;57541;47.408;18.822;2023-02-13T01:21:27;39.50;;;19.13;;
70165;SDS011;57541;47.408;18.822;2023-02-13T01:21:59;38.08;;;19.40;;
70165;SDS011;57541;47.408;18.822;2023-02-13T01:22:31;38.78;;;19.02;;
70165;SDS011;57541;47.408;18.822;2023-02-13T01:23:02;39.47;;;19.20;;
70165;SDS011;57541;47.408;18.822;2023-02-13T01:23:36;41.83;;;19.77;;
70165;SDS011;57541;47.408;18.822;2023-02-13T01:24:09;42.75;;;19.80;;
70165;SDS011;57541;47.408;18.822;2023-02-13T01:24:40;36.67;;;19.23;;
70165;SDS011;57541;47.408;18.822;2023-02-13T01:25:12;38.22;;;19.70;;
70165;SDS011;57541;47.408;18.822;2023-02-13T01:25:44;39.75;;;19.65;;
70165;SDS011;57541;47.408;18.822;2023-02-13T01:26:17;40.15;;;19.77;;
70165;SDS011;57541;47.408;18.822;2023-02-13T01:26:50;40.03;;;20.13;;
70165;SDS011;57541;47.408;18.822;2023-02-13T01:27:22;41.30;;;20.38;;
70165;SDS011;57541;47.408;18.822;2023-02-13T01:27:53;41.72;;;20.58;;
70165;SDS011;57541;47.408;18.822;2023-02-13T01:28:25;40.95;;;20.63;;
70165;SDS011;57541;47.408;18.822;2023-02-13T01:28:57;42.08;;;20.60;;
70165;SDS011;57541;47.408;18.822;2023-02-13T01:29:29;39.22;;;20.35;;
70165;SDS011;57541;47.408;18.822;2023-02-13T01:30:00;42.90;;;23.35;;
70165;SDS011;57541;47.408;18.822;2023-02-13T01:30:32;42.75;;;21.45;;
70165;SDS011;57541;47.408;18.822;2023-02-13T01:31:04;42.42;;;20.50;;
70165;SDS011;57541;47.408;18.822;2023-02-13T01:31:36;41.30;;;20.73;;
70165;SDS011;57541;47.408;18.822;2023-02-13T01:32:08;39.72;;;19.63;;
70165;SDS011;57541;47.408;18.822;2023-02-13T01:32:40;41.90;;;21.08;;
70165;SDS011;57541;47.408;18.822;2023-02-13T01:33:13;42.50;;;21.17;;
70165;SDS011;57541;47.408;18.822;2023-02-13T01:33:44;40.15;;;20.15;;
70165;SDS011;57541;47.408;18.822;2023-02-13T01:34:16;39.10;;;20.38;;
70165;SDS011;57541;47.408;18.822;2023-02-13T01:34:48;43.75;;;20.02;;
70165;SDS011;57541;47.408;18.822;2023-02-13T01:35:20;37.05;;;20.13;;
70165;SDS011;57541;47.408;18.822;2023-02-13T01:35:51;38.83;;;18.60;;
70165;SDS011;57541;47.408;18.822;2023-02-13T01:36:23;39.15;;;20.05;;
70165;SDS011;57541;47.408;18.822;2023-02-13T01:36:56;36.33;;;19.58;;
70165;SDS011;57541;47.408;18.822;2023-02-13T01:37:28;38.35;;;21.05;;
70165;SDS011;57541;47.408;18.822;2023-02-13T01:37:59;40.50;;;20.35;;
70165;SDS011;57541;47.408;18.822;2023-02-13T01:38:31;42.70;;;20.05;;
70165;SDS011;57541;47.408;18.822;2023-02-13T01:39:03;40.50;;;20.98;;
70165;SDS011;57541;47.408;18.822;2023-02-13T01:39:34;39.83;;;19.83;;
70165;SDS011;57541;47.408;18.822;2023-02-13T01:40:07;38.63;;;20.30;;
70165;SDS011;57541;47.408;18.822;2023-02-13T01:40:47;37.67;;;19.80;;
70165;SDS011;57541;47.408;18.822;2023-02-13T01:41:24;39.13;;;19.73;;
70165;SDS011;57541;47.408;18.822;2023-02-13T01:41:57;40.05;;;18.48;;
70165;SDS011;57541;47.408;18.822;2023-02-13T01:42:29;41.10;;;20.00;;
70165;SDS011;57541;47.408;18.822;2023-02-13T01:43:02;38.05;;;19.17;;
70165;SDS011;57541;47.408;18.822;2023-02-13T01:43:47;39.85;;;18.48;;
70165;SDS011;57541;47.408;18.822;2023-02-13T01:45:24;38.45;;;17.35;;
70165;SDS011;57541;47.408;18.822;2023-02-13T01:45:58;37.15;;;18.65;;
70165;SDS011;57541;47.408;18.822;2023-02-13T01:46:32;37.60;;;19.05;;
70165;SDS011;57541;47.408;18.822;2023-02-13T01:47:09;36.75;;;18.83;;
70165;SDS011;57541;47.408;18.822;2023-02-13T01:47:44;38.72;;;17.67;;
70165;SDS011;57541;47.408;18.822;2023-02-13T01:48:19;38.00;;;18.88;;
70165;SDS011;57541;47.408;18.822;2023-02-13T01:48:53;40.60;;;18.10;;
70165;SDS011;57541;47.408;18.822;2023-02-13T01:49:28;37.17;;;18.95;;
70165;SDS011;57541;47.408;18.822;2023-02-13T01:50:07;39.95;;;18.25;;
70165;SDS011;57541;47.408;18.822;2023-02-13T01:50:47;36.28;;;19.27;;
70165;SDS011;57541;47.408;18.822;2023-02-13T01:51:24;39.20;;;18.83;;
70165;SDS011;57541;47.408;18.822;2023-02-13T01:51:58;38.00;;;18.10;;
70165;SDS011;57541;47.408;18.822;2023-02-13T01:52:30;36.35;;;18.25;;
70165;SDS011;57541;47.408;18.822;2023-02-13T01:53:06;37.95;;;17.63;;
70165;SDS011;57541;47.408;18.822;2023-02-13T01:53:52;35.00;;;16.45;;
70165;SDS011;57541;47.408;18.822;2023-02-13T01:54:34;33.78;;;16.05;;
70165;SDS011;57541;47.408;18.822;2023-02-13T01:55:06;32.92;;;17.48;;
70165;SDS011;57541;47.408;18.822;2023-02-13T01:55:45;36.03;;;17.75;;
70165;SDS011;57541;47.408;18.822;2023-02-13T01:56:22;38.47;;;17.48;;
70165;SDS011;57541;47.408;18.822;2023-02-13T01:57:01;34.17;;;17.52;;
70165;SDS011;57541;47.408;18.822;2023-02-13T01:57:38;35.85;;;17.67;;
70165;SDS011;57541;47.408;18.822;2023-02-13T01:58:13;39.88;;;18.00;;
70165;SDS011;57541;47.408;18.822;2023-02-13T01:58:50;34.97;;;17.98;;
70165;SDS011;57541;47.408;18.822;2023-02-13T01:59:26;38.53;;;17.45;;
70165;SDS011;57541;47.408;18.822;2023-02-13T02:00:10;38.17;;;17.85;;
70165;SDS011;57541;47.408;18.822;2023-02-13T02:00:44;38.85;;;18.42;;
70165;SDS011;57541;47.408;18.822;2023-02-13T02:01:20;37.80;;;16.98;;
70165;SDS011;57541;47.408;18.822;2023-02-13T02:01:53;40.35;;;17.92;;
70165;SDS011;57541;47.408;18.822;2023-02-13T02:02:26;34.70;;;17.45;;
70165;SDS011;57541;47.408;18.822;2023-02-13T02:03:07;38.67;;;17.90;;
70165;SDS011;57541;47.408;18.822;2023-02-13T02:03:48;35.75;;;16.92;;
70165;SDS011;57541;47.408;18.822;2023-02-13T02:04:27;38.17;;;17.55;;
70165;SDS011;57541;47.408;18.822;2023-02-13T02:05:03;34.15;;;16.20;;
70165;SDS011;57541;47.408;18.822;2023-02-13T02:05:36;32.53;;;16.60;;
70165;SDS011;57541;47.408;18.822;2023-02-13T02:06:10;36.85;;;17.38;;
70165;SDS011;57541;47.408;18.822;2023-02-13T02:06:51;38.55;;;17.63;;
70165;SDS011;57541;47.408;18.822;2023-02-13T02:07:27;35.17;;;16.98;;
70165;SDS011;57541;47.408;18.822;2023-02-13T02:08:01;33.88;;;16.90;;
70165;SDS011;57541;47.408;18.822;2023-02-13T02:08:38;35.75;;;16.83;;
70165;SDS011;57541;47.408;18.822;2023-02-13T02:09:11;36.95;;;17.15;;
70165;SDS011;57541;47.408;18.822;2023-02-13T02:09:47;33.13;;;16.83;;
70165;SDS011;57541;47.408;18.822;2023-02-13T02:10:20;37.70;;;18.50;;
70165;SDS011;57541;47.408;18.822;2023-02-13T02:10:52;37.40;;;17.50;;
70165;SDS011;57541;47.408;18.822;2023-02-13T02:11:38;35.33;;;15.93;;
70165;SDS011;57541;47.408;18.822;2023-02-13T02:13:32;31.85;;;16.80;;
70165;SDS011;57541;47.408;18.822;2023-02-13T02:13:56;35.00;;;15.10;;
70165;SDS011;57541;47.408;18.822;2023-02-13T02:14:29;34.33;;;15.73;;
70165;SDS011;57541;47.408;18.822;2023-02-13T02:15:01;37.25;;;17.42;;
70165;SDS011;57541;47.408;18.822;2023-02-13T02:15:35;35.13;;;16.05;;
70165;SDS011;57541;47.408;18.822;2023-02-13T02:16:07;35.25;;;16.63;;
70165;SDS011;57541;47.408;18.822;2023-02-13T02:16:38;35.13;;;16.35;;
70165;SDS011;57541;47.408;18.822;2023-02-13T02:17:10;33.40;;;16.83;;
70165;SDS011;57541;47.408;18.822;2023-02-13T02:17:42;33.97;;;15.63;;
70165;SDS011;57541;47.408;18.822;2023-02-13T02:18:15;33.38;;;16.45;;
70165;SDS011;57541;47.408;18.822;2023-02-13T02:18:51;32.67;;;16.02;;
70165;SDS011;57541;47.408;18.822;2023-02-13T02:19:25;34.42;;;15.73;;
70165;SDS011;57541;47.408;18.822;2023-02-13T02:32:14;37.08;;;15.35;;
70165;SDS011;57541;47.408;18.822;2023-02-13T02:33:40;36.80;;;16.45;;
70165;SDS011;57541;47.408;18.822;2023-02-13T02:36:25;36.70;;;16.20;;
70165;SDS011;57541;47.408;18.822;2023-02-13T02:38:23;34.72;;;15.63;;
70165;SDS011;57541;47.408;18.822;2023-02-13T02:44:38;36.13;;;16.67;;
70165;SDS011;57541;47.408;18.822;2023-02-13T02:47:47;30.15;;;14.27;;
70165;SDS011;57541;47.408;18.822;2023-02-13T02:48:43;32.58;;;14.13;;
70165;SDS011;57541;47.408;18.822;2023-02-13T02:49:43;30.20;;;14.52;;
70165;SDS011;57541;47.408;18.822;2023-02-13T02:51:46;36.30;;;16.77;;
70165;SDS011;57541;47.408;18.822;2023-02-13T02:52:25;34.03;;;15.48;;
70165;SDS011;57541;47.408;18.822;2023-02-13T02:55:45;33.28;;;15.60;;
70165;SDS011;57541;47.408;18.822;2023-02-13T02:56:20;33.30;;;14.32;;
70165;SDS011;57541;47.408;18.822;2023-02-13T02:57:02;31.67;;;15.18;;
70165;SDS011;57541;47.408;18.822;2023-02-13T02:57:42;34.65;;;15.43;;
70165;SDS011;57541;47.408;18.822;2023-02-13T02:59:40;33.40;;;14.88;;
70165;SDS011;57541;47.408;18.822;2023-02-13T03:00:32;32.80;;;16.05;;
70165;SDS011;57541;47.408;18.822;2023-02-13T03:01:26;39.33;;;16.52;;
70165;SDS011;57541;47.408;18.822;2023-02-13T03:02:18;34.05;;;17.25;;
70165;SDS011;57541;47.408;18.822;2023-02-13T03:03:14;40.88;;;17.90;;
70165;SDS011;57541;47.408;18.822;2023-02-13T03:04:55;32.88;;;14.65;;
70165;SDS011;57541;47.408;18.822;2023-02-13T03:05:30;35.85;;;15.25;;
70165;SDS011;57541;47.408;18.822;2023-02-13T03:06:29;33.28;;;15.07;;
70165;SDS011;57541;47.408;18.822;2023-02-13T03:07:07;33.55;;;15.98;;
70165;SDS011;57541;47.408;18.822;2023-02-13T03:07:41;37.25;;;16.75;;
70165;SDS011;57541;47.408;18.822;2023-02-13T03:08:14;40.92;;;18.10;;
70165;SDS011;57541;47.408;18.822;2023-02-13T03:09:09;38.17;;;17.20;;
70165;SDS011;57541;47.408;18.822;2023-02-13T03:10:05;44.30;;;17.42;;
70165;SDS011;57541;47.408;18.822;2023-02-13T03:11:04;33.10;;;16.23;;
70165;SDS011;57541;47.408;18.822;2023-02-13T03:11:55;35.13;;;16.52;;
70165;SDS011;57541;47.408;18.822;2023-02-13T03:12:53;34.80;;;16.73;;
70165;SDS011;57541;47.408;18.822;2023-02-13T03:13:51;32.22;;;15.63;;
70165;SDS011;57541;47.408;18.822;2023-02-13T03:14:24;42.42;;;17.45;;
70165;SDS011;57541;47.408;18.822;2023-02-13T03:14:58;41.78;;;18.90;;
70165;SDS011;57541;47.408;18.822;2023-02-13T03:15:30;38.58;;;18.77;;
70165;SDS011;57541;47.408;18.822;2023-02-13T03:16:03;33.45;;;17.52;;
70165;SDS011;57541;47.408;18.822;2023-02-13T03:16:55;38.35;;;17.30;;
70165;SDS011;57541;47.408;18.822;2023-02-13T03:17:46;35.00;;;15.40;;
70165;SDS011;57541;47.408;18.822;2023-02-13T03:18:37;39.97;;;16.13;;
70165;SDS011;57541;47.408;18.822;2023-02-13T03:20:52;31.98;;;14.63;;
70165;SDS011;57541;47.408;18.822;2023-02-13T03:22:32;34.22;;;13.57;;
70165;SDS011;57541;47.408;18.822;2023-02-13T03:25:02;33.28;;;15.00;;
70165;SDS011;57541;47.408;18.822;2023-02-13T03:25:20;33.75;;;16.35;;
70165;SDS011;57541;47.408;18.822;2023-02-13T03:27:16;36.10;;;16.00;;
70165;SDS011;57541;47.408;18.822;2023-02-13T03:28:21;33.35;;;16.05;;
70165;SDS011;57541;47.408;18.822;2023-02-13T03:29:38;33.60;;;15.07;;
70165;SDS011;57541;47.408;18.822;2023-02-13T03:31:43;39.30;;;17.40;;
70165;SDS011;57541;47.408;18.822;2023-02-13T03:34:20;33.05;;;15.05;;
70165;SDS011;57541;47.408;18.822;2023-02-13T03:34:59;34.45;;;14.57;;
70165;SDS011;57541;47.408;18.822;2023-02-13T03:37:06;32.88;;;15.60;;
70165;SDS011;57541;47.408;18.822;2023-02-13T03:38:01;40.33;;;16.05;;
70165;SDS011;57541;47.408;18.822;2023-02-13T03:40:25;38.65;;;16.85;;
70165;SDS011;57541;47.408;18.822;2023-02-13T03:41:04;37.95;;;16.42;;
70165;SDS011;57541;47.408;18.822;2023-02-13T03:41:55;38.67;;;16.65;;
70165;SDS011;57541;47.408;18.822;2023-02-13T03:43:51;35.13;;;16.38;;
70165;SDS011;57541;47.408;18.822;2023-02-13T03:44:39;33.38;;;15.73;;
70165;SDS011;57541;47.408;18.822;2023-02-13T03:45:35;39.05;;;17.35;;
70165;SDS011;57541;47.408;18.822;2023-02-13T03:46:26;37.88;;;16.85;;
70165;SDS011;57541;47.408;18.822;2023-02-13T03:47:01;38.25;;;17.80;;
70165;SDS011;57541;47.408;18.822;2023-02-13T03:47:36;36.42;;;17.38;;
70165;SDS011;57541;47.408;18.822;2023-02-13T03:48:09;36.60;;;17.65;;
70165;SDS011;57541;47.408;18.822;2023-02-13T03:49:03;38.40;;;17.90;;
70165;SDS011;57541;47.408;18.822;2023-02-13T03:49:56;37.50;;;17.52;;
70165;SDS011;57541;47.408;18.822;2023-02-13T03:50:37;42.55;;;19.75;;
70165;SDS011;57541;47.408;18.822;2023-02-13T03:51:18;43.55;;;19.40;;
70165;SDS011;57541;47.408;18.822;2023-02-13T03:53:37;40.90;;;17.95;;
70165;SDS011;57541;47.408;18.822;2023-02-13T03:54:16;35.67;;;16.33;;
70165;SDS011;57541;47.408;18.822;2023-02-13T03:54:55;37.03;;;17.70;;
70165;SDS011;57541;47.408;18.822;2023-02-13T03:55:46;40.00;;;16.60;;
70165;SDS011;57541;47.408;18.822;2023-02-13T03:56:38;36.80;;;16.95;;
70165;SDS011;57541;47.408;18.822;2023-02-13T03:57:30;41.40;;;18.35;;
70165;SDS011;57541;47.408;18.822;2023-02-13T03:58:45;40.40;;;18.75;;
70165;SDS011;57541;47.408;18.822;2023-02-13T03:59:37;40.58;;;17.20;;
70165;SDS011;57541;47.408;18.822;2023-02-13T04:00:10;39.65;;;18.00;;
70165;SDS011;57541;47.408;18.822;2023-02-13T04:00:46;41.63;;;19.15;;
70165;SDS011;57541;47.408;18.822;2023-02-13T04:01:21;37.25;;;18.38;;
70165;SDS011;57541;47.408;18.822;2023-02-13T04:02:11;42.60;;;19.42;;
70165;SDS011;57541;47.408;18.822;2023-02-13T04:02:53;44.75;;;19.95;;
70165;SDS011;57541;47.408;18.822;2023-02-13T04:03:34;42.78;;;19.38;;
70165;SDS011;57541;47.408;18.822;2023-02-13T04:04:24;42.47;;;19.83;;
70165;SDS011;57541;47.408;18.822;2023-02-13T04:05:08;49.30;;;20.23;;
70165;SDS011;57541;47.408;18.822;2023-02-13T04:05:49;42.97;;;19.70;;
70165;SDS011;57541;47.408;18.822;2023-02-13T04:06:26;42.83;;;20.42;;
70165;SDS011;57541;47.408;18.822;2023-02-13T04:07:06;40.05;;;19.02;;
70165;SDS011;57541;47.408;18.822;2023-02-13T04:07:41;45.70;;;21.23;;
70165;SDS011;57541;47.408;18.822;2023-02-13T04:08:12;43.55;;;21.08;;
70165;SDS011;57541;47.408;18.822;2023-02-13T04:08:44;46.83;;;20.50;;
70165;SDS011;57541;47.408;18.822;2023-02-13T04:09:16;42.03;;;20.27;;
70165;SDS011;57541;47.408;18.822;2023-02-13T04:09:48;41.50;;;20.40;;
70165;SDS011;57541;47.408;18.822;2023-02-13T04:10:20;41.75;;;20.58;;
70165;SDS011;57541;47.408;18.822;2023-02-13T04:10:57;44.15;;;21.85;;
70165;SDS011;57541;47.408;18.822;2023-02-13T04:11:42;43.22;;;20.27;;
70165;SDS011;57541;47.408;18.822;2023-02-13T04:12:47;44.20;;;19.83;;
70165;SDS011;57541;47.408;18.822;2023-02-13T04:13:31;41.75;;;19.15;;
70165;SDS011;57541;47.408;18.822;2023-02-13T04:14:06;42.35;;;19.35;;
70165;SDS011;57541;47.408;18.822;2023-02-13T04:15:01;39.38;;;20.33;;
70165;SDS011;57541;47.408;18.822;2023-02-13T04:15:50;41.83;;;19.70;;
70165;SDS011;57541;47.408;18.822;2023-02-13T04:16:40;40.05;;;19.10;;